Time;durP1;ratioP1;P1;durP2;ratioP2;P2;SDS_P1;SDS_P2;PMS_P1;PMS_P2;Temp;Humidity;BMP_temperature;BMP_pressure;BME280_temperature;BME280_humidity;BME280_pressure;Samples;Min_cycle;Max_cycle;Signal;HPM_P1;HPM_P2
2022/10/28 00:00:20;;;;;;;3.38;2.38;;;;;;;19.48;59.57;101766.84;5063867;28;20049;-54
2022/10/28 00:02:45;;;;;;;3.75;2.42;;;;;;;19.46;59.05;101766.16;5063629;28;20024;-52
2022/10/28 00:05:10;;;;;;;2.72;2.17;;;;;;;19.48;59.46;101769.53;5064059;28;20035;-53
2022/10/28 00:07:35;;;;;;;2.67;2.33;;;;;;;19.47;59.08;101766.00;5063754;28;20033;-55
2022/10/28 00:10:01;;;;;;;3.13;2.40;;;;;;;19.47;59.30;101763.28;5063826;28;20025;-52
2022/10/28 00:12:26;;;;;;;3.45;2.35;;;;;;;19.37;59.53;101749.03;5063809;28;20029;-53
2022/10/28 00:14:51;;;;;;;3.83;2.20;;;;;;;19.44;59.40;101758.19;5045528;28;20517;-55
2022/10/28 00:17:16;;;;;;;3.22;2.33;;;;;;;19.47;59.34;101762.44;5043581;28;20026;-50
2022/10/28 00:19:42;;;;;;;3.92;2.50;;;;;;;19.46;59.28;101756.22;5043944;28;20041;-56
2022/10/28 00:22:07;;;;;;;3.85;2.67;;;;;;;19.46;59.15;101758.91;5044305;28;20053;-51
2022/10/28 00:24:32;;;;;;;2.50;1.92;;;;;;;19.38;59.09;101737.25;5063508;28;20092;-53
2022/10/28 00:26:57;;;;;;;4.13;2.20;;;;;;;19.45;58.97;101748.25;5063560;28;20406;-54
2022/10/28 00:29:23;;;;;;;3.33;2.50;;;;;;;19.33;59.03;101734.16;5063645;28;20032;-54
2022/10/28 00:31:49;;;;;;;4.07;2.30;;;;;;;19.45;59.34;101748.25;5063297;28;20051;-54
2022/10/28 00:34:16;;;;;;;3.25;2.20;;;;;;;19.44;59.09;101746.56;5062198;28;20112;-54
2022/10/28 00:36:43;;;;;;;2.65;2.13;;;;;;;19.44;59.45;101742.00;5063428;28;20558;-54
2022/10/28 00:39:13;;;;;;;3.50;2.22;;;;;;;19.44;59.02;101747.41;5063584;28;20048;-53
2022/10/28 00:41:41;;;;;;;2.80;2.00;;;;;;;19.43;59.05;101739.47;5063502;28;20033;-51
2022/10/28 00:44:44;;;;;;;3.50;2.10;;;;;;;19.44;59.39;101747.41;5063649;28;20033;-54
2022/10/28 00:47:15;;;;;;;3.30;2.17;;;;;;;19.30;59.19;101722.81;5062917;28;20120;-52
2022/10/28 00:49:41;;;;;;;3.22;2.42;;;;;;;19.43;59.17;101745.72;5062346;28;20025;-50
2022/10/28 00:52:09;;;;;;;3.63;2.58;;;;;;;19.42;59.02;101735.94;5063074;28;20028;-51
2022/10/28 00:54:36;;;;;;;2.65;2.10;;;;;;;19.43;59.18;101743.00;5043512;28;20057;-51
2022/10/28 00:57:03;;;;;;;3.15;2.22;;;;;;;19.41;59.13;101739.63;5042061;28;20017;-51
2022/10/28 00:59:32;;;;;;;2.30;2.00;;;;;;;19.40;59.34;101735.22;5042451;28;20029;-51
2022/10/28 01:01:58;;;;;;;2.67;2.05;;;;;;;19.41;59.38;101728.84;5042890;28;20069;-53
2022/10/28 01:04:24;;;;;;;3.22;1.88;;;;;;;19.35;59.14;101728.59;5043540;28;20037;-51
2022/10/28 01:06:49;;;;;;;3.78;2.70;;;;;;;19.40;59.29;101729.84;5059660;28;20100;-54
2022/10/28 01:09:15;;;;;;;2.30;2.00;;;;;;;19.41;59.33;101722.59;5062083;28;20645;-52
2022/10/28 01:12:01;;;;;;;3.38;2.25;;;;;;;19.28;59.12;101700.53;5063276;28;20040;-53
2022/10/28 01:14:33;;;;;;;3.35;2.20;;;;;;;19.40;58.92;101712.81;5063364;28;20025;-54
2022/10/28 01:17:20;;;;;;;3.22;2.20;;;;;;;19.40;59.18;101712.81;5062731;28;20040;-51
2022/10/28 01:20:06;;;;;;;3.20;2.13;;;;;;;19.40;58.84;101707.41;5063128;28;20032;-55
2022/10/28 01:22:48;;;;;;;2.80;2.10;;;;;;;19.39;59.04;101703.03;5062667;28;20029;-52
2022/10/28 01:25:44;;;;;;;2.40;1.88;;;;;;;19.38;59.29;101704.03;5061843;28;20085;-54
2022/10/28 01:28:41;;;;;;;3.05;2.47;;;;;;;19.39;59.11;101701.19;5062521;28;20048;-51
2022/10/28 01:31:13;;;;;;;3.15;2.20;;;;;;;19.37;59.00;101684.31;5063033;28;20064;-53
2022/10/28 01:33:45;;;;;;;3.55;2.58;;;;;;;19.37;59.26;101686.13;5061530;28;20056;-51
2022/10/28 01:36:37;;;;;;;2.75;1.90;;;;;;;19.36;59.21;101673.66;5062052;28;20031;-53
2022/10/28 01:39:10;;;;;;;3.47;2.10;;;;;;;19.25;59.10;101658.56;5046637;28;20118;-51
2022/10/28 01:41:44;;;;;;;2.25;2.00;;;;;;;19.36;59.19;101679.91;5063123;28;20029;-55
2022/10/28 01:44:20;;;;;;;2.92;2.00;;;;;;;19.35;58.91;101672.81;5061816;28;20037;-54
2022/10/28 01:47:03;;;;;;;2.47;1.92;;;;;;;19.35;59.21;101680.06;5062884;28;20036;-53
2022/10/28 01:49:58;;;;;;;3.03;2.17;;;;;;;19.36;59.03;101681.75;5061964;28;20052;-50
2022/10/28 01:52:25;;;;;;;2.95;2.13;;;;;;;19.32;58.95;101670.41;5051684;28;20102;-53
2022/10/28 01:54:56;;;;;;;2.22;1.85;;;;;;;19.35;58.88;101671.97;5062884;28;20028;-55
2022/10/28 01:57:22;;;;;;;3.10;2.20;;;;;;;19.25;59.31;101661.25;5061204;28;20029;-54
2022/10/28 01:59:48;;;;;;;3.45;2.30;;;;;;;19.34;59.24;101675.69;5064370;28;20029;-55
2022/10/28 02:02:15;;;;;;;2.45;2.00;;;;;;;19.33;58.98;101674.84;5064693;28;20028;-55
2022/10/28 02:04:40;;;;;;;2.50;1.90;;;;;;;19.34;58.98;101673.81;5065158;28;20494;-55
2022/10/28 02:07:05;;;;;;;2.60;1.90;;;;;;;19.34;59.15;101672.97;5066204;28;20029;-54
2022/10/28 02:09:55;;;;;;;2.78;2.45;;;;;;;19.33;58.83;101674.00;5066271;28;20037;-54
2022/10/28 02:12:27;;;;;;;3.03;2.08;;;;;;;19.28;59.02;101654.69;5064935;28;20079;-56
2022/10/28 02:15:29;;;;;;;2.83;2.10;;;;;;;19.33;59.16;101658.66;5046570;28;20043;-52
2022/10/28 02:18:07;;;;;;;4.38;2.55;;;;;;;19.29;59.13;101651.88;5045529;28;20036;-51
2022/10/28 02:20:50;;;;;;;2.85;1.98;;;;;;;19.31;59.04;101652.56;5044938;28;20116;-51
2022/10/28 02:23:23;;;;;;;4.43;2.20;;;;;;;19.32;58.98;101661.47;5057488;28;20120;-54
2022/10/28 02:26:16;;;;;;;3.38;2.15;;;;;;;19.31;58.99;101655.25;5065609;28;20032;-54
2022/10/28 02:29:02;;;;;;;4.25;2.70;;;;;;;19.31;58.92;101654.41;5059355;28;20041;-52
2022/10/28 02:31:34;;;;;;;4.57;2.60;;;;;;;19.31;59.16;101654.41;5064381;28;20033;-54
2022/10/28 02:34:04;;;;;;;2.60;2.35;;;;;;;19.26;59.17;101644.09;5064183;28;20029;-53
2022/10/28 02:36:33;;;;;;;2.47;1.92;;;;;;;19.21;59.01;101625.66;5064661;28;20031;-52
2022/10/28 02:38:59;;;;;;;3.38;2.47;;;;;;;19.30;59.10;101645.47;5064212;28;20088;-55
2022/10/28 02:41:31;;;;;;;4.05;2.50;;;;;;;19.23;59.17;101628.19;5064520;28;20036;-54
2022/10/28 02:44:00;;;;;;;2.80;2.08;;;;;;;19.29;59.30;101635.69;5065888;28;20076;-55
2022/10/28 02:46:28;;;;;;;2.88;2.10;;;;;;;19.25;58.92;101625.38;5065641;28;20025;-55
2022/10/28 02:48:56;;;;;;;2.83;2.28;;;;;;;19.30;58.81;101632.00;5063717;28;20032;-54
2022/10/28 02:51:34;;;;;;;2.53;1.90;;;;;;;19.29;59.27;101624.91;5064298;28;20025;-54
2022/10/28 02:54:12;;;;;;;4.15;2.30;;;;;;;19.29;58.86;101621.38;5063841;28;20032;-53
2022/10/28 02:56:42;;;;;;;3.17;2.20;;;;;;;19.26;59.07;101619.81;5064201;28;20055;-53
2022/10/28 02:59:10;;;;;;;2.92;2.30;;;;;;;19.29;58.73;101622.22;5063922;28;20025;-53
2022/10/28 03:01:35;;;;;;;3.40;2.10;;;;;;;19.27;59.27;101618.81;5065149;28;20060;-53
2022/10/28 03:04:00;;;;;;;2.60;2.00;;;;;;;19.28;59.09;101620.50;5064713;28;20032;-55
2022/10/28 03:06:25;;;;;;;2.45;1.98;;;;;;;19.28;59.06;101622.34;5065057;28;20029;-55
2022/10/28 03:08:51;;;;;;;2.65;1.83;;;;;;;19.27;58.80;101618.81;5064897;28;20040;-53
2022/10/28 03:11:18;;;;;;;3.03;2.33;;;;;;;19.28;58.82;101623.19;5064034;28;20023;-52
2022/10/28 03:13:43;;;;;;;3.08;2.17;;;;;;;19.27;58.93;101621.50;5055759;28;20117;-54
2022/10/28 03:16:08;;;;;;;1.95;1.73;;;;;;;19.28;59.12;101622.34;5045032;28;20052;-52
2022/10/28 03:18:33;;;;;;;2.40;1.80;;;;;;;19.27;58.82;101615.25;5044396;28;20072;-52
2022/10/28 03:20:59;;;;;;;2.60;2.20;;;;;;;19.26;59.07;101609.03;5045095;28;20033;-53
2022/10/28 03:23:24;;;;;;;2.35;1.90;;;;;;;19.27;58.78;101615.25;5059286;28;20037;-49
2022/10/28 03:25:49;;;;;;;2.58;2.22;;;;;;;19.27;59.02;101618.81;5064657;28;20048;-54
2022/10/28 03:28:14;;;;;;;2.35;1.75;;;;;;;19.24;58.80;101619.09;5064075;28;20438;-54
2022/10/28 03:30:41;;;;;;;3.03;2.00;;;;;;;19.14;59.02;101600.31;5064907;28;20404;-51
2022/10/28 03:33:06;;;;;;;2.45;1.90;;;;;;;19.25;58.68;101628.06;5064182;28;20044;-54
2022/10/28 03:35:31;;;;;;;2.90;1.95;;;;;;;19.24;59.09;101616.41;5064884;28;20028;-52
2022/10/28 03:37:56;;;;;;;2.40;1.92;;;;;;;19.26;58.74;101618.97;5064539;28;20025;-53
2022/10/28 03:40:22;;;;;;;2.50;1.70;;;;;;;19.25;58.56;101615.44;5064540;28;20029;-54
2022/10/28 03:42:47;;;;;;;2.30;1.70;;;;;;;19.25;59.03;101609.19;5064432;28;20029;-52
2022/10/28 03:45:12;;;;;;;2.72;2.00;;;;;;;19.25;58.71;101612.72;5064536;28;20032;-55
2022/10/28 03:47:38;;;;;;;2.30;2.00;;;;;;;19.25;59.12;101614.59;5043171;28;20030;-55
2022/10/28 03:50:04;;;;;;;2.90;2.00;;;;;;;19.17;58.82;101604.56;5044615;28;20096;-55
2022/10/28 03:52:29;;;;;;;2.80;2.10;;;;;;;19.24;58.73;101613.72;5053641;28;20347;-53
2022/10/28 03:54:54;;;;;;;2.33;1.83;;;;;;;19.25;58.83;101611.91;5064129;28;20092;-54
2022/10/28 03:57:19;;;;;;;2.97;2.30;;;;;;;19.23;58.78;101612.88;5064008;28;20029;-53
2022/10/28 03:59:45;;;;;;;2.03;1.70;;;;;;;19.23;58.72;101622.81;5063980;28;20033;-55
2022/10/28 04:02:10;;;;;;;2.15;1.90;;;;;;;19.20;58.80;101610.50;5063832;28;20051;-52
2022/10/28 04:04:35;;;;;;;2.67;1.85;;;;;;;19.23;58.77;101614.72;5060025;28;20029;-52
2022/10/28 04:07:00;;;;;;;3.20;2.05;;;;;;;19.13;58.72;101598.63;5063139;28;20035;-55
2022/10/28 04:09:26;;;;;;;2.88;1.92;;;;;;;19.23;58.70;101615.56;5064222;28;20036;-51
2022/10/28 04:11:51;;;;;;;2.70;1.90;;;;;;;19.22;58.58;101613.03;5062019;28;20033;-56
2022/10/28 04:14:16;;;;;;;1.95;1.75;;;;;;;19.11;58.79;101592.53;5062302;28;20029;-53
2022/10/28 04:16:41;;;;;;;2.03;1.77;;;;;;;19.21;58.84;101612.19;5062204;28;20828;-52
2022/10/28 04:19:07;;;;;;;2.38;1.90;;;;;;;19.21;58.98;101609.50;5062827;28;20036;-55
2022/10/28 04:21:32;;;;;;;3.58;2.22;;;;;;;19.22;59.07;101613.03;5063152;28;20052;-56
2022/10/28 04:23:57;;;;;;;2.28;1.75;;;;;;;19.07;58.76;101585.75;5061191;28;20032;-54
2022/10/28 04:26:22;;;;;;;2.67;1.90;;;;;;;19.21;58.84;101601.41;5063386;28;20032;-55
2022/10/28 04:28:48;;;;;;;2.42;2.03;;;;;;;19.21;58.73;101597.88;5062942;28;20509;-57
2022/10/28 04:31:13;;;;;;;2.85;1.90;;;;;;;19.20;58.86;101609.66;5062934;28;20171;-56
2022/10/28 04:33:38;;;;;;;2.85;1.90;;;;;;;19.21;58.65;101614.88;5061267;28;20021;-55
2022/10/28 04:36:04;;;;;;;2.90;2.10;;;;;;;19.21;59.00;101617.59;5063980;28;20025;-56
2022/10/28 04:38:29;;;;;;;2.88;2.15;;;;;;;19.14;58.53;101600.31;5063492;28;20658;-57
2022/10/28 04:40:54;;;;;;;2.22;2.03;;;;;;;19.11;58.87;101595.22;5063026;28;20099;-54
2022/10/28 04:43:20;;;;;;;4.15;2.10;;;;;;;19.21;58.91;101608.66;5063361;28;20032;-55
2022/10/28 04:45:46;;;;;;;2.47;1.92;;;;;;;19.21;58.79;101614.88;5056207;28;20029;-55
2022/10/28 04:48:11;;;;;;;2.53;1.95;;;;;;;19.21;59.19;101614.03;5049872;28;20024;-56
2022/10/28 04:50:36;;;;;;;2.72;1.98;;;;;;;19.22;59.17;101613.88;5048468;28;20547;-53
2022/10/28 04:53:02;;;;;;;3.00;2.05;;;;;;;19.21;59.19;101604.09;5056071;28;20036;-57
2022/10/28 04:55:27;;;;;;;2.53;1.80;;;;;;;19.22;59.13;101596.84;5063364;28;20051;-55
2022/10/28 04:57:56;;;;;;;2.33;2.13;;;;;;;19.22;59.20;101595.00;5062829;28;20051;-53
2022/10/28 05:00:22;;;;;;;2.88;2.10;;;;;;;19.21;59.11;101598.72;5063043;28;20075;-55
2022/10/28 05:02:48;;;;;;;3.25;2.10;;;;;;;19.23;59.06;101606.63;5062353;28;20033;-55
2022/10/28 05:05:14;;;;;;;2.40;1.90;;;;;;;19.22;59.19;101603.09;5062219;28;20056;-53
2022/10/28 05:07:39;;;;;;;4.40;2.30;;;;;;;19.21;59.13;101597.88;5060383;28;20032;-53
2022/10/28 05:10:04;;;;;;;3.97;2.63;;;;;;;19.23;59.19;101599.38;5063137;28;20071;-54
2022/10/28 05:12:30;;;;;;;2.45;1.90;;;;;;;19.24;59.17;101600.22;5062672;28;20036;-56
2022/10/28 05:14:55;;;;;;;2.10;1.90;;;;;;;19.23;59.50;101593.16;5062895;28;20025;-53
2022/10/28 05:17:20;;;;;;;2.95;1.95;;;;;;;19.25;59.36;101595.72;5062382;28;20021;-55
2022/10/28 05:19:45;;;;;;;3.97;2.10;;;;;;;19.22;59.16;101586.06;5059877;28;20497;-52
2022/10/28 05:22:11;;;;;;;3.78;2.33;;;;;;;19.24;59.10;101589.44;5053175;28;20182;-56
2022/10/28 05:24:36;;;;;;;3.83;2.00;;;;;;;19.25;59.26;101584.94;5052585;28;20026;-54
2022/10/28 05:27:01;;;;;;;3.63;2.38;;;;;;;19.24;59.41;101581.34;5059064;28;20568;-55
2022/10/28 05:29:26;;;;;;;4.05;2.10;;;;;;;19.24;59.32;101584.06;5062353;28;20455;-54
2022/10/28 05:31:52;;;;;;;2.55;1.77;;;;;;;19.25;59.26;101582.25;5062396;28;20057;-55
2022/10/28 05:34:17;;;;;;;3.20;2.00;;;;;;;19.24;59.29;101578.66;5079358;28;20074;-55
2022/10/28 05:36:42;;;;;;;2.95;1.90;;;;;;;19.25;59.21;101588.47;5066629;28;20554;-61
2022/10/28 05:39:07;;;;;;;3.47;2.10;;;;;;;19.25;59.73;101593.88;5049561;28;20052;-59
2022/10/28 05:41:33;;;;;;;2.42;2.05;;;;;;;19.26;59.73;101581.22;5047209;28;20039;-60
2022/10/28 05:43:58;;;;;;;2.53;1.83;;;;;;;19.25;59.58;101577.69;5062251;28;20021;-60
2022/10/28 05:46:23;;;;;;;3.25;2.08;;;;;;;19.26;59.96;101584.75;5052991;28;20089;-59
2022/10/28 05:48:48;;;;;;;2.47;1.85;;;;;;;19.27;59.67;101583.75;5058741;28;20039;-58
2022/10/28 05:51:14;;;;;;;3.17;2.17;;;;;;;19.27;60.00;101581.06;5064357;28;20060;-59
2022/10/28 05:53:40;;;;;;;3.00;2.05;;;;;;;19.28;59.79;101581.91;5065690;28;20675;-59
2022/10/28 05:56:06;;;;;;;2.22;1.85;;;;;;;19.28;60.26;101576.50;5061648;28;20025;-59
2022/10/28 05:58:32;;;;;;;3.30;2.30;;;;;;;19.28;59.93;101574.66;5057601;28;20025;-59
2022/10/28 06:00:57;;;;;;;2.65;2.10;;;;;;;19.25;59.96;101568.75;5059457;28;20498;-59
2022/10/28 06:03:22;;;;;;;3.78;2.25;;;;;;;19.23;60.01;101564.34;5075649;28;20117;-59
2022/10/28 06:05:48;;;;;;;2.83;2.13;;;;;;;19.29;60.27;101572.84;5062467;28;20135;-59
2022/10/28 06:08:14;;;;;;;2.75;2.28;;;;;;;19.29;60.47;101578.22;5044579;28;20033;-59
2022/10/28 06:10:39;;;;;;;5.03;2.72;;;;;;;19.28;60.60;101581.91;5056058;28;20032;-59
2022/10/28 06:13:05;;;;;;;4.05;2.97;;;;;;;19.28;60.51;101580.06;5059230;28;20041;-60
2022/10/28 06:15:31;;;;;;;3.35;2.47;;;;;;;19.13;60.54;101563.59;5063801;28;20036;-54
2022/10/28 06:17:56;;;;;;;3.30;2.03;;;;;;;19.27;60.54;101591.84;5065153;28;20044;-59
2022/10/28 06:20:21;;;;;;;3.28;2.35;;;;;;;19.27;60.61;101593.69;5058652;28;20037;-59
2022/10/28 06:22:48;;;;;;;4.22;2.30;;;;;;;19.27;60.21;101594.53;5060055;28;20068;-59
2022/10/28 06:25:13;;;;;;;2.97;2.28;;;;;;;19.27;60.81;101589.16;5063886;28;20032;-59
2022/10/28 06:27:39;;;;;;;4.78;2.38;;;;;;;19.24;60.29;101584.06;5062407;28;20021;-58
2022/10/28 06:30:05;;;;;;;3.30;2.40;;;;;;;19.26;60.27;101590.16;5065371;28;20059;-59
2022/10/28 06:32:30;;;;;;;3.30;2.42;;;;;;;19.26;60.25;101597.41;5058944;28;20017;-59
2022/10/28 06:34:55;;;;;;;3.42;2.45;;;;;;;19.27;60.63;101599.94;5065084;28;20032;-59
2022/10/28 06:37:20;;;;;;;4.60;2.63;;;;;;;19.22;60.04;101592.31;5061461;28;20021;-62
2022/10/28 06:39:50;;;;;;;4.25;2.60;;;;;;;19.27;60.58;101597.25;5063236;28;20081;-63
2022/10/28 06:42:16;;;;;;;5.40;2.85;;;;;;;19.14;60.59;101578.75;5051166;28;20025;-64
2022/10/28 06:44:41;;;;;;;2.88;2.53;;;;;;;19.22;60.19;101589.63;5060766;28;20056;-61
2022/10/28 06:47:06;;;;;;;6.30;3.20;;;;;;;19.28;60.08;101598.09;5052127;28;20021;-56
2022/10/28 06:49:31;;;;;;;6.47;2.60;;;;;;;19.29;60.14;101606.03;5060369;28;20060;-61
2022/10/28 06:51:57;;;;;;;5.13;2.83;;;;;;;19.30;60.00;101610.41;5061565;28;20021;-63
2022/10/28 06:54:22;;;;;;;4.65;2.67;;;;;;;19.30;60.32;101604.19;5058283;28;20040;-63
2022/10/28 06:56:47;;;;;;;4.18;3.13;;;;;;;19.30;59.81;101604.19;5058950;28;20031;-62
2022/10/28 06:59:12;;;;;;;5.80;3.03;;;;;;;19.29;60.08;101614.13;5050425;28;20052;-63
2022/10/28 07:01:38;;;;;;;5.57;2.95;;;;;;;19.27;59.82;101602.63;5061795;28;20072;-63
2022/10/28 07:04:03;;;;;;;5.38;2.65;;;;;;;19.31;59.80;101606.72;5064021;28;20559;-63
2022/10/28 07:06:28;;;;;;;5.28;2.88;;;;;;;19.28;60.04;101607.00;5064775;28;20073;-63
2022/10/28 07:08:54;;;;;;;4.65;2.60;;;;;;;19.29;59.55;101603.34;5053563;28;20044;-61
2022/10/28 07:11:19;;;;;;;4.68;2.80;;;;;;;19.32;59.55;101612.94;5059230;28;20037;-62
2022/10/28 07:13:44;;;;;;;4.68;2.60;;;;;;;19.32;59.79;101612.94;5055586;28;20032;-62
2022/10/28 07:16:09;;;;;;;4.85;3.13;;;;;;;19.32;59.59;101616.50;5064716;28;20056;-63
2022/10/28 07:18:35;;;;;;;4.80;2.90;;;;;;;19.27;59.50;101602.63;5055253;28;20029;-63
2022/10/28 07:21:00;;;;;;;3.92;3.00;;;;;;;19.33;59.84;101615.50;5056534;28;20076;-64
2022/10/28 07:23:26;;;;;;;4.88;2.83;;;;;;;19.34;59.48;101617.19;5063961;28;20035;-64
2022/10/28 07:25:55;;;;;;;4.82;2.78;;;;;;;19.35;59.62;101618.03;5050153;28;20056;-63
2022/10/28 07:28:21;;;;;;;3.83;3.13;;;;;;;19.35;59.50;101618.03;5061069;28;20036;-63
2022/10/28 07:30:47;;;;;;;5.88;2.97;;;;;;;19.31;59.65;101612.09;5054188;28;20036;-63
2022/10/28 07:33:12;;;;;;;5.88;3.00;;;;;;;19.29;59.33;101608.72;5057066;28;20032;-63
2022/10/28 07:35:37;;;;;;;4.72;2.78;;;;;;;19.38;59.41;101613.19;5063676;28;20063;-63
2022/10/28 07:38:03;;;;;;;5.45;3.05;;;;;;;19.35;59.23;101605.41;5048297;28;20195;-63
2022/10/28 07:40:28;;;;;;;5.03;2.63;;;;;;;19.30;59.51;101605.03;5052077;28;20087;-63
2022/10/28 07:42:53;;;;;;;4.43;3.08;;;;;;;19.39;59.11;101633.75;5055137;28;20035;-63
2022/10/28 07:45:19;;;;;;;4.75;2.80;;;;;;;19.41;59.34;101626.38;5049603;28;20029;-63
2022/10/28 07:47:44;;;;;;;5.55;2.85;;;;;;;19.44;59.36;101627.91;5059738;28;20033;-64
2022/10/28 07:50:10;;;;;;;6.57;3.92;;;;;;;19.43;59.38;101618.97;5049213;28;20029;-58
2022/10/28 07:52:36;;;;;;;4.05;2.90;;;;;;;19.45;59.19;101621.50;5061083;28;20051;-66
2022/10/28 07:55:02;;;;;;;6.45;2.95;;;;;;;19.47;59.46;101614.97;5051622;28;20490;-72
2022/10/28 07:57:27;;;;;;;4.20;2.90;;;;;;;19.48;59.44;101622.03;5058603;28;20027;-65
2022/10/28 07:59:53;;;;;;;6.72;3.05;;;;;;;19.51;59.43;101617.34;5046968;28;20028;-60
2022/10/28 08:02:21;;;;;;;6.28;2.58;;;;;;;19.51;59.24;101618.19;5057368;28;20072;-61
2022/10/28 08:04:46;;;;;;;4.97;2.73;;;;;;;19.52;59.24;101616.34;5053388;28;20029;-60
2022/10/28 08:07:12;;;;;;;5.68;2.97;;;;;;;19.53;59.16;101618.88;5049678;28;20347;-57
2022/10/28 08:09:37;;;;;;;4.40;2.60;;;;;;;19.42;59.01;101594.84;5044375;28;20037;-67
2022/10/28 08:12:03;;;;;;;3.72;2.65;;;;;;;19.55;59.03;101613.34;5058343;28;20036;-65
2022/10/28 08:14:28;;;;;;;5.80;3.35;;;;;;;19.43;59.33;101594.69;5051099;28;20063;-64
2022/10/28 08:16:54;;;;;;;6.38;3.05;;;;;;;19.58;59.24;101613.00;5054505;28;20063;-63
2022/10/28 08:19:19;;;;;;;3.63;2.67;;;;;;;19.58;59.22;101621.97;5048298;28;20029;-65
2022/10/28 08:21:45;;;;;;;7.35;3.13;;;;;;;19.58;58.92;101618.41;5059737;28;20080;-64
2022/10/28 08:24:10;;;;;;;4.85;2.72;;;;;;;19.61;59.25;101618.13;5048563;28;20028;-65
2022/10/28 08:26:36;;;;;;;14.77;3.35;;;;;;;19.63;59.04;101624.22;5054279;28;20032;-62
2022/10/28 08:29:01;;;;;;;17.60;3.40;;;;;;;19.66;59.12;101629.28;5054934;28;20093;-60
2022/10/28 08:31:26;;;;;;;17.65;4.60;;;;;;;19.69;58.89;101626.28;5063194;28;20033;-60
2022/10/28 08:33:51;;;;;;;13.38;3.80;;;;;;;19.63;58.97;101608.88;5060265;28;20021;-59
2022/10/28 08:36:17;;;;;;;8.65;3.47;;;;;;;19.78;58.92;101629.91;5049276;28;20047;-59
2022/10/28 08:38:43;;;;;;;11.52;3.35;;;;;;;19.83;59.02;101625.72;5054784;28;20033;-58
2022/10/28 08:41:34;;;;;;;15.82;4.07;;;;;;;20.91;55.95;101626.16;5049829;28;20029;-64
2022/10/28 08:44:38;;;;;;;9.32;3.72;;;;;;;20.78;55.79;101623.09;5046894;28;20028;-59
2022/10/28 08:47:23;;;;;;;8.25;2.67;;;;;;;20.65;56.09;101627.09;5050409;28;20037;-58
2022/10/28 08:49:54;;;;;;;7.70;2.78;;;;;;;20.56;56.32;101619.09;5058026;28;20035;-56
2022/10/28 08:52:38;;;;;;;7.93;2.25;;;;;;;20.48;56.35;101622.63;5047983;28;20108;-59
2022/10/28 08:55:13;;;;;;;9.35;3.08;;;;;;;20.41;56.73;101622.38;5050545;28;20038;-63
2022/10/28 08:57:46;;;;;;;10.25;3.42;;;;;;;20.36;56.86;101624.72;5055867;28;20025;-60
2022/10/28 09:00:19;;;;;;;5.72;2.80;;;;;;;20.28;56.84;101621.97;5061010;28;20048;-65
2022/10/28 09:02:53;;;;;;;8.07;3.20;;;;;;;20.29;56.97;101636.31;5062032;28;20086;-58
2022/10/28 09:05:21;;;;;;;7.55;3.17;;;;;;;20.24;57.25;101631.41;5057907;28;20502;-58
2022/10/28 09:07:47;;;;;;;8.50;2.83;;;;;;;20.23;57.27;101630.56;5045533;28;20030;-58
2022/10/28 09:10:16;;;;;;;7.57;2.88;;;;;;;20.22;56.92;101634.28;5054057;28;20041;-59
2022/10/28 09:13:11;;;;;;;9.02;2.88;;;;;;;20.23;57.01;101637.81;5055146;28;20017;-59
2022/10/28 09:16:10;;;;;;;10.45;3.72;;;;;;;20.22;57.34;101620.78;4965403;29;20035;-57
2022/10/28 09:18:50;;;;;;;8.95;3.05;;;;;;;20.15;57.43;101608.06;4951124;29;20114;-62
2022/10/28 09:21:35;;;;;;;10.52;3.38;;;;;;;20.24;57.27;101631.41;4965670;29;20053;-64
2022/10/28 09:24:14;;;;;;;29.60;6.63;;;;;;;20.26;57.55;101632.06;4950232;29;20047;-63
2022/10/28 09:26:54;;;;;;;9.15;3.03;;;;;;;20.29;56.96;101639.88;4965200;29;20035;-63
2022/10/28 09:29:29;;;;;;;9.05;3.10;;;;;;;20.30;57.38;101636.16;4948448;29;20111;-59
2022/10/28 09:32:13;;;;;;;8.60;3.85;;;;;;;20.16;57.08;101607.91;4964776;29;20067;-59
2022/10/28 09:34:43;;;;;;;8.73;2.90;;;;;;;20.27;57.05;101627.53;4965524;29;20075;-59
2022/10/28 09:37:22;;;;;;;8.30;3.20;;;;;;;20.31;57.04;101627.06;4960108;29;20063;-59
2022/10/28 09:39:56;;;;;;;13.30;3.75;;;;;;;20.33;56.87;101633.13;4964992;29;20058;-59
2022/10/28 09:42:31;;;;;;;8.45;3.75;;;;;;;20.33;56.93;101633.13;4943021;29;20149;-60
2022/10/28 09:44:58;;;;;;;10.30;3.10;;;;;;;20.34;57.07;101632.13;4956900;29;20043;-65
2022/10/28 09:47:28;;;;;;;9.80;2.97;;;;;;;20.35;57.06;101628.44;4964957;29;20055;-67
2022/10/28 09:49:55;;;;;;;10.75;3.08;;;;;;;20.35;57.36;101623.03;4964554;29;20619;-67
2022/10/28 09:52:24;;;;;;;11.75;2.70;;;;;;;20.36;57.04;101637.38;5030583;28;20044;-67
2022/10/28 09:54:51;;;;;;;6.60;2.78;;;;;;;20.39;57.13;101634.34;5064627;28;20025;-67
2022/10/28 09:57:16;;;;;;;6.70;3.08;;;;;;;20.34;56.98;101613.22;5065552;28;20036;-67
2022/10/28 09:59:41;;;;;;;4.63;2.72;;;;;;;20.40;56.93;101619.84;5047579;28;20409;-65
2022/10/28 10:02:24;;;;;;;8.38;2.85;;;;;;;20.27;56.65;101598.69;5065547;28;20041;-67
2022/10/28 10:04:49;;;;;;;6.07;3.20;;;;;;;20.40;57.14;101620.69;5064453;28;20036;-66
2022/10/28 10:07:24;;;;;;;5.82;3.78;;;;;;;20.42;56.90;101628.63;5064742;28;20120;-67
2022/10/28 10:09:50;;;;;;;7.35;3.78;;;;;;;20.39;57.10;101623.53;5064461;28;20096;-64
2022/10/28 10:12:15;;;;;;;8.98;2.85;;;;;;;20.44;57.32;101613.13;5064259;28;20078;-66
2022/10/28 10:14:49;;;;;;;6.93;2.65;;;;;;;20.44;57.35;101616.66;5055395;28;20025;-65
2022/10/28 10:17:15;;;;;;;6.35;2.72;;;;;;;20.45;56.93;101631.00;5059000;28;20017;-66
2022/10/28 10:20:13;;;;;;;6.28;2.72;;;;;;;20.44;57.32;101622.06;5062334;28;20040;-65
2022/10/28 10:22:44;;;;;;;7.10;2.65;;;;;;;20.48;57.02;101622.63;5054145;28;20081;-66
2022/10/28 10:25:18;;;;;;;5.85;2.60;;;;;;;20.47;57.29;101621.75;5052234;28;20061;-65
2022/10/28 10:27:56;;;;;;;8.23;3.13;;;;;;;20.49;57.08;101620.75;5062511;28;20021;-65
2022/10/28 10:30:24;;;;;;;10.27;3.70;;;;;;;20.50;57.12;101630.56;5063886;28;20494;-66
2022/10/28 10:32:50;;;;;;;7.63;2.90;;;;;;;20.50;57.15;101630.56;5062052;28;20088;-65
2022/10/28 10:35:36;;;;;;;7.72;3.55;;;;;;;20.46;57.28;101621.88;5059358;28;20021;-66
2022/10/28 10:38:03;;;;;;;9.50;2.95;;;;;;;20.47;57.36;101620.88;5063382;28;20463;-66
2022/10/28 10:40:33;;;;;;;5.43;3.40;;;;;;;20.47;57.16;101621.75;5057741;28;20029;-66
2022/10/28 10:43:13;;;;;;;5.50;3.08;;;;;;;20.49;57.43;101626.16;5056297;28;20032;-65
2022/10/28 10:45:39;;;;;;;5.93;2.70;;;;;;;20.49;56.98;101618.06;5048177;28;20029;-65
2022/10/28 10:48:12;;;;;;;4.63;2.45;;;;;;;20.51;57.07;101619.56;5044800;28;20017;-66
2022/10/28 10:50:38;;;;;;;10.30;3.20;;;;;;;20.52;57.20;101615.88;5053918;28;20051;-66
2022/10/28 10:53:03;;;;;;;8.32;3.60;;;;;;;20.53;57.01;101612.16;5046098;28;20088;-65
2022/10/28 10:55:34;;;;;;;5.13;3.03;;;;;;;20.40;57.38;101590.97;5064752;28;20047;-66
2022/10/28 10:58:00;;;;;;;8.88;3.08;;;;;;;20.43;57.58;101598.78;5044531;28;20014;-59
2022/10/28 11:00:31;;;;;;;8.38;3.40;;;;;;;20.50;57.62;101600.84;5053861;28;20056;-65
2022/10/28 11:02:57;;;;;;;11.52;4.30;;;;;;;20.50;57.74;101595.44;5043137;28;20032;-56
2022/10/28 11:05:22;;;;;;;13.73;4.03;;;;;;;20.50;57.72;101584.63;5059528;28;20450;-57
2022/10/28 11:07:49;;;;;;;10.15;4.20;;;;;;;20.56;58.14;101586.66;5062540;28;20028;-58
2022/10/28 11:10:23;;;;;;;7.32;4.05;;;;;;;20.56;58.34;101592.06;5064822;28;20028;-59
2022/10/28 11:12:54;;;;;;;13.23;4.45;;;;;;;20.58;57.96;101590.06;5055939;28;20033;-59
2022/10/28 11:15:23;;;;;;;12.43;4.13;;;;;;;20.59;58.01;101598.00;5049513;28;20037;-57
2022/10/28 11:18:15;;;;;;;10.18;4.25;;;;;;;20.60;58.46;101582.63;5060573;28;20021;-59
2022/10/28 11:20:53;;;;;;;11.57;4.63;;;;;;;20.62;58.16;101586.03;5043550;28;20025;-67
2022/10/28 11:23:31;;;;;;;16.50;5.10;;;;;;;20.60;58.51;101571.81;5055147;28;20055;-67
2022/10/28 11:26:05;;;;;;;9.63;4.43;;;;;;;20.54;58.23;101562.53;5063580;28;20371;-67
2022/10/28 11:28:36;;;;;;;8.90;4.55;;;;;;;20.64;58.17;101573.19;5062196;28;20041;-67
2022/10/28 11:31:26;;;;;;;12.93;4.90;;;;;;;20.64;58.40;101562.38;5056697;28;20051;-62
2022/10/28 11:34:04;;;;;;;10.65;4.80;;;;;;;20.65;58.39;101567.66;5061510;28;20017;-58